Time;durP1;ratioP1;P1;durP2;ratioP2;P2;SDS_P1;SDS_P2;PMS_P1;PMS_P2;Temp;Humidity;BMP_temperature;BMP_pressure;BME280_temperature;BME280_humidity;BME280_pressure;Samples;Min_cycle;Max_cycle;Signal;HPM_P1;HPM_P2
2022/11/15 00:02:50;;;;;;;;;;;;;;;;;;10457590;28;19925;-63
2022/11/15 00:07:52;;;;;;;;;;;;;;;;;;10456974;28;19925;-63
2022/11/15 00:12:57;;;;;;;;;;;;;;;;;;10456692;28;19928;-63
2022/11/15 00:17:59;;;;;;;;;;;;;;;;;;10457287;28;19933;-63
2022/11/15 00:23:01;;;;;;;;;;;;;;;;;;10456590;28;20387;-63
2022/11/15 00:28:03;;;;;;;;;;;;;;;;;;10457177;28;19928;-63
2022/11/15 00:33:05;;;;;;;;;;;;;;;;;;10457022;28;19975;-63
2022/11/15 00:38:07;;;;;;;;;;;;;;;;;;10456269;28;20261;-63
2022/11/15 00:43:09;;;;;;;;;;;;;;;;;;10456868;28;19975;-63
2022/11/15 00:48:11;;;;;;;;;;;;;;;;;;10456872;28;19975;-63
2022/11/15 00:53:13;;;;;;;;;;;;;;;;;;10456468;28;19929;-62
2022/11/15 00:58:15;;;;;;;;;;;;;;;;;;10455862;28;20414;-62
2022/11/15 01:03:17;;;;;;;;;;;;;;;;;;10461819;23;19925;-61
2022/11/15 01:08:19;;;;;;;;;;;;;;;;;;10456459;28;19925;-61
2022/11/15 01:13:21;;;;;;;;;;;;;;;;;;10455700;28;20325;-61
2022/11/15 01:18:23;;;;;;;;;;;;;;;;;;10456340;28;19929;-61
2022/11/15 01:23:25;;;;;;;;;;;;;;;;;;10456432;28;19924;-61
2022/11/15 01:28:27;;;;;;;;;;;;;;;;;;10463600;28;19975;-61
2022/11/15 01:33:29;;;;;;;;;;;;;;;;;;10462767;28;20395;-61
2022/11/15 01:38:32;;;;;;;;;;;;;;;;;;10463120;28;19924;-61
2022/11/15 01:43:34;;;;;;;;;;;;;;;;;;10462402;28;20339;-61
2022/11/15 01:48:36;;;;;;;;;;;;;;;;;;10462877;28;19925;-61
2022/11/15 01:53:38;;;;;;;;;;;;;;;;;;10461989;28;19924;-61
2022/11/15 01:58:40;;;;;;;;;;;;;;;;;;10461737;28;19929;-61
2022/11/15 02:03:42;;;;;;;;;;;;;;;;;;10462022;28;19925;-61
2022/11/15 02:08:44;;;;;;;;;;;;;;;;;;10462044;28;19975;-61
2022/11/15 02:13:46;;;;;;;;;;;;;;;;;;10461195;28;20406;-61
2022/11/15 02:18:48;;;;;;;;;;;;;;;;;;10461591;28;19932;-61
2022/11/15 02:23:50;;;;;;;;;;;;;;;;;;10460821;28;19929;-61
2022/11/15 02:28:52;;;;;;;;;;;;;;;;;;10460663;28;19986;-61
2022/11/15 02:33:54;;;;;;;;;;;;;;;;;;10461036;28;19975;-61
2022/11/15 02:38:56;;;;;;;;;;;;;;;;;;10459483;28;19928;-61
2022/11/15 02:43:58;;;;;;;;;;;;;;;;;;10460048;28;20354;-61
2022/11/15 02:49:00;;;;;;;;;;;;;;;;;;10460465;28;19936;-61
2022/11/15 02:54:02;;;;;;;;;;;;;;;;;;10460243;28;19925;-61
2022/11/15 02:59:04;;;;;;;;;;;;;;;;;;10459469;28;19925;-61
2022/11/15 03:04:06;;;;;;;;;;;;;;;;;;10459472;28;19925;-61
2022/11/15 03:09:08;;;;;;;;;;;;;;;;;;10459268;28;19925;-61
2022/11/15 03:14:10;;;;;;;;;;;;;;;;;;10459467;28;19928;-61
2022/11/15 03:19:12;;;;;;;;;;;;;;;;;;10459190;28;19978;-61
2022/11/15 03:24:14;;;;;;;;;;;;;;;;;;10458991;28;20390;-61
2022/11/15 03:29:17;;;;;;;;;;;;;;;;;;10458909;28;19978;-61
2022/11/15 03:34:19;;;;;;;;;;;;;;;;;;10458064;28;20315;-61
2022/11/15 03:39:21;;;;;;;;;;;;;;;;;;10457827;28;20002;-61
2022/11/15 03:44:23;;;;;;;;;;;;;;;;;;10458320;28;19955;-61
2022/11/15 03:49:25;;;;;;;;;;;;;;;;;;10457282;28;19932;-61
2022/11/15 03:54:27;;;;;;;;;;;;;;;;;;10457371;28;20342;-61
2022/11/15 03:59:29;;;;;;;;;;;;;;;;;;10457663;28;19925;-61
2022/11/15 04:04:31;;;;;;;;;;;;;;;;;;10457439;28;19929;-61
2022/11/15 04:09:33;;;;;;;;;;;;;;;;;;10457563;28;19925;-62
2022/11/15 04:14:35;;;;;;;;;;;;;;;;;;10457421;28;19932;-62
2022/11/15 04:24:57;;;;;;;;;;;;;;;;;;10456606;28;20364;-62
2022/11/15 04:29:59;;;;;;;;;;;;;;;;;;10456550;28;19929;-62
2022/11/15 04:35:01;;;;;;;;;;;;;;;;;;10457215;28;19986;-62
2022/11/15 04:40:03;;;;;;;;;;;;;;;;;;10456861;28;19929;-62
2022/11/15 04:45:06;;;;;;;;;;;;;;;;;;10456871;28;19928;-61
2022/11/15 04:50:08;;;;;;;;;;;;;;;;;;10455688;28;19925;-62
2022/11/15 04:55:10;;;;;;;;;;;;;;;;;;10456668;28;19975;-61
2022/11/15 05:00:12;;;;;;;;;;;;;;;;;;10460400;28;19943;-62
2022/11/15 05:05:14;;;;;;;;;;;;;;;;;;10464199;28;20272;-62
2022/11/15 05:10:16;;;;;;;;;;;;;;;;;;10464406;28;19975;-61
2022/11/15 05:15:18;;;;;;;;;;;;;;;;;;10464155;28;20291;-61
2022/11/15 05:20:20;;;;;;;;;;;;;;;;;;10463905;28;19937;-62
2022/11/15 05:25:22;;;;;;;;;;;;;;;;;;10463735;28;19925;-62
2022/11/15 05:30:24;;;;;;;;;;;;;;;;;;10462992;28;20330;-62
2022/11/15 05:35:26;;;;;;;;;;;;;;;;;;10463395;28;19924;-62
2022/11/15 05:40:28;;;;;;;;;;;;;;;;;;10463128;28;19970;-62
2022/11/15 05:45:30;;;;;;;;;;;;;;;;;;10462905;28;20338;-62
2022/11/15 05:50:32;;;;;;;;;;;;;;;;;;10462202;28;20323;-62
2022/11/15 05:55:35;;;;;;;;;;;;;;;;;;10462636;28;19932;-61
2022/11/15 06:00:37;;;;;;;;;;;;;;;;;;10462821;28;19974;-61
2022/11/15 06:05:39;;;;;;;;;;;;;;;;;;10461861;28;20288;-61
2022/11/15 06:10:41;;;;;;;;;;;;;;;;;;10460894;28;19982;-61
2022/11/15 06:15:43;;;;;;;;;;;;;;;;;;10461986;28;19955;-61
2022/11/15 06:20:45;;;;;;;;;;;;;;;;;;10460963;28;19925;-61
2022/11/15 06:25:47;;;;;;;;;;;;;;;;;;10461429;28;19983;-62
2022/11/15 06:30:49;;;;;;;;;;;;;;;;;;10461280;28;19925;-62
2022/11/15 06:35:54;;;;;;;;;;;;;;;;;;10460401;28;20315;-62
2022/11/15 06:40:56;;;;;;;;;;;;;;;;;;10460885;28;19975;-62
2022/11/15 06:45:58;;;;;;;;;;;;;;;;;;10460063;28;19925;-62
2022/11/15 06:51:00;;;;;;;;;;;;;;;;;;10459898;28;19932;-62
2022/11/15 06:56:02;;;;;;;;;;;;;;;;;;10460250;28;19978;-62
2022/11/15 07:01:05;;;;;;;;;;;;;;;;;;10459363;28;20384;-61
2022/11/15 07:06:07;;;;;;;;;;;;;;;;;;10459654;28;19925;-61
2022/11/15 07:11:09;;;;;;;;;;;;;;;;;;10459074;28;20410;-61
2022/11/15 07:16:11;;;;;;;;;;;;;;;;;;10459446;28;19937;-62
2022/11/15 07:21:15;;;;;;;;;;;;;;;;;;10458953;28;19971;-62
2022/11/15 07:26:17;;;;;;;;;;;;;;;;;;10459112;28;19925;-62
2022/11/15 07:31:19;;;;;;;;;;;;;;;;;;10457735;28;19925;-62
2022/11/15 07:36:21;;;;;;;;;;;;;;;;;;10458078;28;20350;-62
2022/11/15 07:41:24;;;;;;;;;;;;;;;;;;10458289;28;20296;-62
2022/11/15 07:46:26;;;;;;;;;;;;;;;;;;10458365;28;19928;-62
2022/11/15 07:51:28;;;;;;;;;;;;;;;;;;10458234;28;19943;-62
2022/11/15 07:56:30;;;;;;;;;;;;;;;;;;10458053;28;19928;-62
2022/11/15 08:01:32;;;;;;;;;;;;;;;;;;10457166;28;19982;-61
2022/11/15 08:06:34;;;;;;;;;;;;;;;;;;10456908;28;20379;-62
2022/11/15 08:11:36;;;;;;;;;;;;;;;;;;10457613;28;19925;-62
2022/11/15 08:16:38;;;;;;;;;;;;;;;;;;10456867;28;19925;-62
2022/11/15 08:21:40;;;;;;;;;;;;;;;;;;10457283;28;19925;-62
2022/11/15 08:26:42;;;;;;;;;;;;;;;;;;10456625;28;20334;-62
2022/11/15 08:31:45;;;;;;;;;;;;;;;;;;10457286;28;20253;-62
2022/11/15 08:36:47;;;;;;;;;;;;;;;;;;10464025;28;19925;-62
2022/11/15 08:41:49;;;;;;;;;;;;;;;;;;10461692;28;19974;-63
2022/11/15 08:46:51;;;;;;;;;;;;;;;;;;10434959;28;19932;-62
2022/11/15 08:51:53;;;;;;;;;;;;;;;;;;10454950;28;19932;-62
2022/11/15 08:56:55;;;;;;;;;;;;;;;;;;10463479;28;19978;-62
2022/11/15 09:01:58;;;;;;;;;;;;;;;;;;10461769;28;19925;-62
2022/11/15 09:07:00;;;;;;;;;;;;;;;;;;10459161;28;19925;-62
2022/11/15 09:12:02;;;;;;;;;;;;;;;;;;10462393;28;19928;-62
2022/11/15 09:17:04;;;;;;;;;;;;;;;;;;10459860;28;19925;-62
2022/11/15 09:22:06;;;;;;;;;;;;;;;;;;10462687;28;19974;-62
2022/11/15 09:27:08;;;;;;;;;;;;;;;;;;10461289;28;19925;-62
2022/11/15 09:32:10;;;;;;;;;;;;;;;;;;10461385;28;20273;-62
2022/11/15 09:37:12;;;;;;;;;;;;;;;;;;10461900;28;19928;-61
2022/11/15 09:42:14;;;;;;;;;;;;;;;;;;10461831;28;19924;-62
2022/11/15 09:47:16;;;;;;;;;;;;;;;;;;10440544;28;20695;-62
2022/11/15 09:52:18;;;;;;;;;;;;;;;;;;10428765;28;19925;-62
2022/11/15 09:57:20;;;;;;;;;;;;;;;;;;10461022;28;19924;-62
2022/11/15 10:02:23;;;;;;;;;;;;;;;;;;10461675;28;19974;-63
2022/11/15 10:07:25;;;;;;;;;;;;;;;;;;10462257;28;19925;-63
2022/11/15 10:12:27;;;;;;;;;;;;;;;;;;10462061;28;19925;-62
2022/11/15 10:17:29;;;;;;;;;;;;;;;;;;10461702;28;20323;-62
2022/11/15 10:22:31;;;;;;;;;;;;;;;;;;10461802;28;19924;-63
2022/11/15 10:27:33;;;;;;;;;;;;;;;;;;10460786;28;20438;-62
2022/11/15 10:32:35;;;;;;;;;;;;;;;;;;10461872;28;19933;-63
2022/11/15 10:37:38;;;;;;;;;;;;;;;;;;10460860;28;19925;-62
2022/11/15 10:42:40;;;;;;;;;;;;;;;;;;10459730;28;19954;-62
2022/11/15 10:47:42;;;;;;;;;;;;;;;;;;10460716;28;19929;-62
2022/11/15 10:52:44;;;;;;;;;;;;;;;;;;10460676;28;19924;-62
2022/11/15 10:57:46;;;;;;;;;;;;;;;;;;10459067;28;20338;-62
2022/11/15 11:02:48;;;;;;;;;;;;;;;;;;10456926;28;19975;-62
2022/11/15 11:07:50;;;;;;;;;;;;;;;;;;10458396;28;19929;-62
2022/11/15 11:12:52;;;;;;;;;;;;;;;;;;10457934;28;19978;-62
2022/11/15 11:17:54;;;;;;;;;;;;;;;;;;10458847;28;19925;-62
2022/11/15 11:22:56;;;;;;;;;;;;;;;;;;10456068;28;19925;-63
2022/11/15 11:27:58;;;;;;;;;;;;;;;;;;10454203;28;19971;-62
2022/11/15 11:33:00;;;;;;;;;;;;;;;;;;10456481;28;19924;-63
2022/11/15 11:38:02;;;;;;;;;;;;;;;;;;10458743;28;19974;-62
2022/11/15 11:43:05;;;;;;;;;;;;;;;;;;10457869;28;19929;-62
2022/11/15 11:48:07;;;;;;;;;;;;;;;;;;10457157;28;19924;-62
2022/11/15 11:53:09;;;;;;;;;;;;;;;;;;10458149;28;19967;-62
2022/11/15 11:58:11;;;;;;;;;;;;;;;;;;10456244;28;20434;-62
2022/11/15 12:03:13;;;;;;;;;;;;;;;;;;10457800;28;19933;-62
2022/11/15 12:08:15;;;;;;;;;;;;;;;;;;10456204;28;20269;-63
2022/11/15 12:13:17;;;;;;;;;;;;;;;;;;10457603;28;19924;-62
2022/11/15 12:18:19;;;;;;;;;;;;;;;;;;10457492;28;19955;-62
2022/11/15 12:23:21;;;;;;;;;;;;;;;;;;10456691;28;20287;-62
2022/11/15 12:28:23;;;;;;;;;;;;;;;;;;10456602;28;19925;-62
2022/11/15 12:33:25;;;;;;;;;;;;;;;;;;10457181;28;19929;-62
2022/11/15 12:38:27;;;;;;;;;;;;;;;;;;10456469;28;19936;-62
2022/11/15 12:43:30;;;;;;;;;;;;;;;;;;10456323;28;19925;-62
2022/11/15 12:48:32;;;;;;;;;;;;;;;;;;10456854;28;19950;-62
2022/11/15 12:53:34;;;;;;;;;;;;;;;;;;10456687;28;19932;-62
2022/11/15 12:58:36;;;;;;;;;;;;;;;;;;10456696;28;20042;-62
2022/11/15 13:03:39;;;;;;;;;;;;;;;;;;10455948;28;19925;-62
2022/11/15 13:08:41;;;;;;;;;;;;;;;;;;10457032;28;19951;-63
2022/11/15 13:13:43;;;;;;;;;;;;;;;;;;10456382;28;19983;-62
2022/11/15 13:18:45;;;;;;;;;;;;;;;;;;10521252;23;19976;-62
2022/11/15 13:23:47;;;;;;;;;;;;;;;;;;10571498;28;19924;-62
2022/11/15 13:28:50;;;;;;;;;;;;;;;;;;10589469;28;19924;-63
2022/11/15 13:33:52;;;;;;;;;;;;;;;;;;10589782;28;19923;-62
2022/11/15 13:38:54;;;;;;;;;;;;;;;;;;10588985;28;20044;-62
2022/11/15 13:43:56;;;;;;;;;;;;;;;;;;10588110;28;20332;-62
2022/11/15 13:48:59;;;;;;;;;;;;;;;;;;10587968;28;19924;-62
2022/11/15 13:54:01;;;;;;;;;;;;;;;;;;10589313;28;19923;-62
2022/11/15 13:59:03;;;;;;;;;;;;;;;;;;10588169;28;19928;-62
2022/11/15 14:04:05;;;;;;;;;;;;;;;;;;10587268;28;19927;-62
2022/11/15 14:09:07;;;;;;;;;;;;;;;;;;10587132;28;19923;-62
2022/11/15 14:14:09;;;;;;;;;;;;;;;;;;10587616;28;19967;-62
2022/11/15 14:19:11;;;;;;;;;;;;;;;;;;10586560;28;20260;-62
2022/11/15 14:24:13;;;;;;;;;;;;;;;;;;10586497;28;20285;-62
2022/11/15 14:29:15;;;;;;;;;;;;;;;;;;10587010;28;19934;-62
2022/11/15 14:34:17;;;;;;;;;;;;;;;;;;10585642;28;20362;-62
2022/11/15 14:39:19;;;;;;;;;;;;;;;;;;10585948;28;20309;-62
2022/11/15 14:44:21;;;;;;;;;;;;;;;;;;10586318;28;19924;-62
2022/11/15 14:49:24;;;;;;;;;;;;;;;;;;10568148;28;19923;-62
2022/11/15 14:54:26;;;;;;;;;;;;;;;;;;10586446;28;19965;-62
2022/11/15 14:59:28;;;;;;;;;;;;;;;;;;10585676;28;19927;-62
2022/11/15 15:04:30;;;;;;;;;;;;;;;;;;10585425;28;19924;-61
2022/11/15 15:09:32;;;;;;;;;;;;;;;;;;10585367;28;19969;-62
2022/11/15 15:14:34;;;;;;;;;;;;;;;;;;10584560;28;19984;-62
2022/11/15 15:19:36;;;;;;;;;;;;;;;;;;10584365;28;19976;-62
2022/11/15 15:24:38;;;;;;;;;;;;;;;;;;10584019;28;19931;-62
2022/11/15 15:29:40;;;;;;;;;;;;;;;;;;10584556;28;19924;-62
2022/11/15 15:34:42;;;;;;;;;;;;;;;;;;10583764;28;20328;-62
2022/11/15 15:39:44;;;;;;;;;;;;;;;;;;10584709;28;19973;-62
2022/11/15 15:44:46;;;;;;;;;;;;;;;;;;10583202;28;19984;-62
2022/11/15 15:49:48;;;;;;;;;;;;;;;;;;10583097;28;19924;-62
2022/11/15 15:54:50;;;;;;;;;;;;;;;;;;10583583;28;19924;-62
2022/11/15 15:59:52;;;;;;;;;;;;;;;;;;10582738;28;20325;-62
2022/11/15 16:04:54;;;;;;;;;;;;;;;;;;10565241;28;20044;-62
2022/11/15 16:09:59;;;;;;;;;;;;;;;;;;10582523;28;20344;-62
2022/11/15 16:15:02;;;;;;;;;;;;;;;;;;10583041;28;19923;-61
2022/11/15 16:20:04;;;;;;;;;;;;;;;;;;10582218;28;19924;-61
2022/11/15 16:25:06;;;;;;;;;;;;;;;;;;10582710;28;19935;-61
2022/11/15 16:30:08;;;;;;;;;;;;;;;;;;10581909;28;19976;-61
2022/11/15 16:35:10;;;;;;;;;;;;;;;;;;10582509;28;19924;-61
2022/11/15 16:40:12;;;;;;;;;;;;;;;;;;10582410;28;19928;-61
2022/11/15 16:45:14;;;;;;;;;;;;;;;;;;10582299;28;19928;-61
2022/11/15 16:50:16;;;;;;;;;;;;;;;;;;10581631;28;19992;-61
2022/11/15 16:55:18;;;;;;;;;;;;;;;;;;10584750;28;19931;-62
2022/11/15 17:00:20;;;;;;;;;;;;;;;;;;10590476;28;19924;-61
2022/11/15 17:05:22;;;;;;;;;;;;;;;;;;10590409;28;19924;-61
2022/11/15 17:10:24;;;;;;;;;;;;;;;;;;10590246;28;19924;-61
2022/11/15 17:15:26;;;;;;;;;;;;;;;;;;10589376;28;19932;-61
2022/11/15 17:20:29;;;;;;;;;;;;;;;;;;10588968;28;19927;-61
2022/11/15 17:25:31;;;;;;;;;;;;;;;;;;10589447;28;19924;-61
2022/11/15 17:30:34;;;;;;;;;;;;;;;;;;10588778;28;19924;-61
2022/11/15 17:35:36;;;;;;;;;;;;;;;;;;10588532;28;20287;-62
2022/11/15 17:40:38;;;;;;;;;;;;;;;;;;10588258;28;19923;-61
2022/11/15 17:45:41;;;;;;;;;;;;;;;;;;10588151;28;20358;-61
2022/11/15 17:50:43;;;;;;;;;;;;;;;;;;10587951;28;20264;-61
2022/11/15 17:55:45;;;;;;;;;;;;;;;;;;10588401;28;19924;-61
2022/11/15 18:00:47;;;;;;;;;;;;;;;;;;10587460;28;20332;-61
2022/11/15 18:05:49;;;;;;;;;;;;;;;;;;10585911;28;20286;-61
2022/11/15 18:10:51;;;;;;;;;;;;;;;;;;10587787;28;19970;-61
2022/11/15 18:15:54;;;;;;;;;;;;;;;;;;10587589;28;19969;-61
2022/11/15 18:20:56;;;;;;;;;;;;;;;;;;10586520;28;19928;-61
2022/11/15 18:25:58;;;;;;;;;;;;;;;;;;10587049;28;19924;-61
2022/11/15 18:31:00;;;;;;;;;;;;;;;;;;10586963;28;19927;-61
2022/11/15 18:36:02;;;;;;;;;;;;;;;;;;10586132;28;20336;-61
2022/11/15 18:41:04;;;;;;;;;;;;;;;;;;10586384;28;20317;-61
2022/11/15 18:46:07;;;;;;;;;;;;;;;;;;10586359;28;19927;-61
2022/11/15 18:51:09;;;;;;;;;;;;;;;;;;10585509;28;20334;-61
2022/11/15 18:56:11;;;;;;;;;;;;;;;;;;10585945;28;19927;-61
2022/11/15 19:01:13;;;;;;;;;;;;;;;;;;10585099;28;20370;-61
2022/11/15 19:06:17;;;;;;;;;;;;;;;;;;10584162;28;20428;-61
2022/11/15 19:11:20;;;;;;;;;;;;;;;;;;10585843;28;19924;-61
2022/11/15 19:16:22;;;;;;;;;;;;;;;;;;10585116;28;19924;-61
2022/11/15 19:21:24;;;;;;;;;;;;;;;;;;10583598;28;19924;-61
2022/11/15 19:26:26;;;;;;;;;;;;;;;;;;10584687;28;19936;-61
2022/11/15 19:31:28;;;;;;;;;;;;;;;;;;10583847;28;19985;-61
2022/11/15 19:36:34;;;;;;;;;;;;;;;;;;10583714;28;19967;-61
2022/11/15 19:41:37;;;;;;;;;;;;;;;;;;10583427;28;20366;-61
2022/11/15 19:46:39;;;;;;;;;;;;;;;;;;10583961;28;19931;-61
2022/11/15 19:51:43;;;;;;;;;;;;;;;;;;10583151;28;19932;-61
2022/11/15 19:56:46;;;;;;;;;;;;;;;;;;10583635;28;19924;-61
2022/11/15 20:01:48;;;;;;;;;;;;;;;;;;10583345;28;19924;-61
2022/11/15 20:06:50;;;;;;;;;;;;;;;;;;10583278;28;19928;-61
2022/11/15 20:11:52;;;;;;;;;;;;;;;;;;10583168;28;19931;-61
2022/11/15 20:16:54;;;;;;;;;;;;;;;;;;10582966;28;19924;-61
2022/11/15 20:21:56;;;;;;;;;;;;;;;;;;10582544;28;20320;-61
2022/11/15 20:26:58;;;;;;;;;;;;;;;;;;10582798;28;19924;-60
2022/11/15 20:32:00;;;;;;;;;;;;;;;;;;10582047;28;19924;-61
2022/11/15 20:37:02;;;;;;;;;;;;;;;;;;10582160;28;20325;-61
2022/11/15 20:42:04;;;;;;;;;;;;;;;;;;10582402;28;19924;-61
2022/11/15 20:47:06;;;;;;;;;;;;;;;;;;10581797;28;20040;-61
2022/11/15 20:52:08;;;;;;;;;;;;;;;;;;10582315;28;19968;-61
2022/11/15 20:57:10;;;;;;;;;;;;;;;;;;10581582;28;20374;-61
2022/11/15 21:02:12;;;;;;;;;;;;;;;;;;10582047;28;19928;-61
2022/11/15 21:07:14;;;;;;;;;;;;;;;;;;10582058;28;19931;-61
2022/11/15 21:12:17;;;;;;;;;;;;;;;;;;10581283;28;20372;-61
2022/11/15 21:17:20;;;;;;;;;;;;;;;;;;10581000;28;20286;-61
2022/11/15 21:22:22;;;;;;;;;;;;;;;;;;10582160;28;19973;-61
2022/11/15 21:27:24;;;;;;;;;;;;;;;;;;10581549;28;19953;-61
2022/11/15 21:32:27;;;;;;;;;;;;;;;;;;10580909;28;20378;-61
2022/11/15 21:37:29;;;;;;;;;;;;;;;;;;10580631;28;19928;-61
2022/11/15 21:42:32;;;;;;;;;;;;;;;;;;10585444;28;19927;-61
2022/11/15 21:47:34;;;;;;;;;;;;;;;;;;10588779;28;19923;-61
2022/11/15 21:52:36;;;;;;;;;;;;;;;;;;10587959;28;19924;-61
2022/11/15 21:57:38;;;;;;;;;;;;;;;;;;10588386;28;19924;-61
2022/11/15 22:02:40;;;;;;;;;;;;;;;;;;10587461;28;19977;-61
2022/11/15 22:07:42;;;;;;;;;;;;;;;;;;10587873;28;19927;-61
2022/11/15 22:12:44;;;;;;;;;;;;;;;;;;10587648;28;19923;-61
2022/11/15 22:17:58;;;;;;;;;;;;;;;;;;10587331;28;19927;-61
2022/11/15 22:23:01;;;;;;;;;;;;;;;;;;10587270;28;19953;-61
2022/11/15 22:28:03;;;;;;;;;;;;;;;;;;10586512;28;19924;-61
2022/11/15 22:33:05;;;;;;;;;;;;;;;;;;10586883;28;19924;-61
2022/11/15 22:38:07;;;;;;;;;;;;;;;;;;10587299;28;19928;-61
2022/11/15 22:43:09;;;;;;;;;;;;;;;;;;10586467;28;19928;-61
2022/11/15 22:48:11;;;;;;;;;;;;;;;;;;10585930;28;20380;-61
2022/11/15 22:53:13;;;;;;;;;;;;;;;;;;10585311;28;19956;-61
2022/11/15 22:58:15;;;;;;;;;;;;;;;;;;10585903;28;19953;-61
2022/11/15 23:03:17;;;;;;;;;;;;;;;;;;10584998;28;20398;-61
2022/11/15 23:08:19;;;;;;;;;;;;;;;;;;10585656;28;19931;-61
2022/11/15 23:13:21;;;;;;;;;;;;;;;;;;10584943;28;19923;-61
2022/11/15 23:18:23;;;;;;;;;;;;;;;;;;10584907;28;19924;-61
2022/11/15 23:23:25;;;;;;;;;;;;;;;;;;10584828;28;19977;-61
2022/11/15 23:28:27;;;;;;;;;;;;;;;;;;10584049;28;19928;-61
2022/11/15 23:38:51;;;;;;;;;;;;;;;;;;10584296;28;19973;-61
2022/11/15 23:43:53;;;;;;;;;;;;;;;;;;10583410;28;19924;-61
2022/11/15 23:48:55;;;;;;;;;;;;;;;;;;10583921;28;19927;-61
2022/11/15 23:53:57;;;;;;;;;;;;;;;;;;10583720;28;19927;-61
2022/11/15 23:58:59;;;;;;;;;;;;;;;;;;10582956;28;20383;-61
